Time;durP1;ratioP1;P1;durP2;ratioP2;P2;SDS_P1;SDS_P2;PMS_P1;PMS_P2;Temp;Humidity;BMP_temperature;BMP_pressure;BME280_temperature;BME280_humidity;BME280_pressure;Samples;Min_cycle;Max_cycle;Signal;HPM_P1;HPM_P2
2022/08/20 00:02:55;;;;;;;18.73;12.23;;;;;;;16.94;81.99;96306.63;10333945;28;98336;-58
2022/08/20 00:08:00;;;;;;;10.73;9.43;;;;;;;16.98;81.62;96296.53;10335021;28;96781;-58
2022/08/20 00:13:04;;;;;;;16.55;11.68;;;;;;;17.07;81.37;96284.03;10333340;28;96792;-57
2022/08/20 00:18:07;;;;;;;14.93;11.52;;;;;;;17.03;81.79;96288.06;10333834;28;96771;-58
2022/08/20 00:23:16;;;;;;;19.20;12.80;;;;;;;16.96;81.71;96274.78;10331658;28;96844;-57
2022/08/20 00:28:19;;;;;;;14.55;11.82;;;;;;;17.04;81.34;96292.31;10333805;28;96815;-59
2022/08/20 00:33:23;;;;;;;15.50;11.85;;;;;;;17.08;81.54;96285.69;10334114;28;96770;-58
2022/08/20 00:38:28;;;;;;;11.30;10.07;;;;;;;17.13;81.38;96281.47;10325916;28;97027;-58
2022/08/20 00:43:36;;;;;;;10.77;9.53;;;;;;;17.08;81.69;96280.41;10329798;28;96710;-57
2022/08/20 00:48:41;;;;;;;12.45;11.13;;;;;;;17.10;81.94;96273.09;10326363;28;98058;-57
2022/08/20 00:53:45;;;;;;;;;;;;;;;16.99;81.80;96283.16;10319443;28;96850;-57
2022/08/20 00:58:49;;;;;;;10.97;7.27;;;;;;;16.93;81.98;96283.88;10330335;28;96873;-57
2022/08/20 01:03:53;;;;;;;10.90;7.63;;;;;;;16.98;81.55;96278.06;10325306;28;96878;-58
2022/08/20 01:09:01;;;;;;;9.07;7.20;;;;;;;16.94;81.99;96282.88;10328659;28;98474;-58
2022/08/20 01:14:26;;;;;;;10.93;6.93;;;;;;;16.96;81.97;96275.59;10329367;28;98710;-57
2022/08/20 01:19:33;;;;;;;8.52;6.15;;;;;;;16.93;82.29;96275.16;10325926;28;96759;-59
2022/08/20 01:24:42;;;;;;;12.32;8.93;;;;;;;16.87;82.62;96278.56;10328533;28;96856;-58
2022/08/20 01:29:47;;;;;;;9.77;7.30;;;;;;;16.82;82.79;96273.81;10318280;28;97061;-57
2022/08/20 01:34:50;;;;;;;6.63;5.28;;;;;;;16.78;83.25;96275.22;10330253;28;96917;-57
2022/08/20 01:39:53;;;;;;;8.73;6.25;;;;;;;16.83;82.64;96275.44;10324270;28;97040;-58
2022/08/20 01:44:58;;;;;;;11.32;6.75;;;;;;;16.85;82.44;96278.75;10326376;28;96887;-58
2022/08/20 01:50:15;;;;;;;10.30;6.90;;;;;;;16.86;82.44;96277.72;10322474;28;97353;-58
2022/08/20 01:55:18;;;;;;;6.40;4.90;;;;;;;16.88;82.63;96275.69;10328535;28;96786;-58
2022/08/20 02:00:23;;;;;;;7.22;5.07;;;;;;;16.96;81.86;96277.44;10321505;28;97224;-58
2022/08/20 02:05:26;;;;;;;6.88;3.88;;;;;;;16.91;82.00;96277.97;10330077;28;96855;-58
2022/08/20 02:10:32;;;;;;;6.40;4.78;;;;;;;16.87;82.54;96282.00;10322873;28;96835;-58
2022/08/20 02:15:36;;;;;;;9.05;6.72;;;;;;;16.84;82.49;96271.81;10326647;28;96791;-57
2022/08/20 02:20:45;;;;;;;15.18;8.10;;;;;;;16.78;82.29;96268.09;10323037;28;97290;-58
2022/08/20 02:25:49;;;;;;;10.03;7.57;;;;;;;16.76;82.92;96261.38;10319784;28;96905;-57
2022/08/20 02:30:55;;;;;;;10.27;6.30;;;;;;;16.77;83.05;96277.00;10328419;28;96863;-57
2022/08/20 02:35:58;;;;;;;8.82;5.78;;;;;;;16.78;82.86;96275.22;10326187;28;96779;-58
2022/08/20 02:41:01;;;;;;;8.52;5.60;;;;;;;16.85;82.49;96273.47;10329504;28;97045;-57
2022/08/20 02:46:06;;;;;;;5.82;4.63;;;;;;;16.86;82.51;96272.44;10326012;28;97194;-58
2022/08/20 02:51:09;;;;;;;9.45;4.60;;;;;;;16.87;81.98;96279.38;10336617;28;97857;-58
2022/08/20 02:56:12;;;;;;;5.55;4.28;;;;;;;16.90;81.87;96268.44;10337478;28;97730;-58
2022/08/20 03:01:17;;;;;;;8.50;4.25;;;;;;;16.87;82.18;96266.19;10316964;28;96905;-57
2022/08/20 03:06:21;;;;;;;9.35;4.18;;;;;;;16.90;82.18;96263.16;10325287;28;96747;-57
2022/08/20 03:11:24;;;;;;;4.60;2.90;;;;;;;16.92;82.06;96270.88;10329194;28;96814;-59
2022/08/20 03:16:28;;;;;;;6.40;4.00;;;;;;;16.96;81.83;96270.31;10336532;28;97109;-57
2022/08/20 03:21:31;;;;;;;5.05;3.10;;;;;;;16.95;81.69;96268.72;10336963;28;96801;-59
2022/08/20 03:26:34;;;;;;;7.20;3.53;;;;;;;16.86;81.87;96269.00;10335903;28;97646;-59
2022/08/20 03:31:38;;;;;;;6.57;3.33;;;;;;;16.91;81.76;96264.78;10335483;28;96883;-58
2022/08/20 03:36:41;;;;;;;4.20;3.38;;;;;;;16.89;81.62;96268.63;10334977;28;96763;-57
2022/08/20 03:41:44;;;;;;;7.13;3.70;;;;;;;16.75;82.24;96275.56;10335987;28;96898;-58
2022/08/20 03:46:48;;;;;;;6.95;3.80;;;;;;;16.62;82.98;96271.75;10331188;28;96879;-57
2022/08/20 03:51:51;;;;;;;8.40;4.13;;;;;;;16.64;83.10;96266.31;10334869;28;96731;-58
2022/08/20 03:57:01;;;;;;;5.22;3.72;;;;;;;16.71;82.75;96261.06;10330621;28;97313;-57
2022/08/20 04:02:15;;;;;;;6.80;4.10;;;;;;;16.66;83.24;96258.19;10333917;28;97276;-58
2022/08/20 04:07:24;;;;;;;4.60;3.75;;;;;;;16.60;83.28;96257.91;10333109;28;96738;-57
2022/08/20 04:12:27;;;;;;;7.03;4.22;;;;;;;16.56;83.77;96272.47;10336142;28;97088;-59
2022/08/20 04:17:32;;;;;;;8.18;4.38;;;;;;;16.54;83.99;96269.22;10333890;28;96884;-58
2022/08/20 04:22:35;;;;;;;9.65;4.50;;;;;;;16.51;83.93;96280.13;10328511;28;96751;-57
2022/08/20 04:27:41;;;;;;;6.05;3.78;;;;;;;16.55;83.81;96276.09;10328902;28;97201;-58
2022/08/20 04:32:45;;;;;;;7.82;4.38;;;;;;;16.61;83.75;96282.47;10334295;28;96761;-58
2022/08/20 04:37:48;;;;;;;6.00;4.30;;;;;;;16.59;83.96;96271.31;10333826;28;96836;-58
2022/08/20 04:42:51;;;;;;;4.57;3.50;;;;;;;16.66;83.72;96287.19;10329031;28;96818;-58
2022/08/20 04:47:57;;;;;;;6.95;4.72;;;;;;;16.58;84.00;96291.56;10333395;28;97007;-58
2022/08/20 04:53:00;;;;;;;9.48;4.47;;;;;;;16.60;84.20;96286.09;10333920;28;97619;-57
2022/08/20 04:58:04;;;;;;;8.27;3.78;;;;;;;16.63;83.92;96281.28;10332761;28;96805;-57
2022/08/20 05:03:08;;;;;;;4.03;3.57;;;;;;;16.70;84.09;96288.47;10332905;28;98710;-57
2022/08/20 05:08:12;;;;;;;7.30;4.20;;;;;;;16.81;83.97;96290.66;10330552;28;98652;-58
2022/08/20 05:13:22;;;;;;;6.90;3.42;;;;;;;16.95;83.63;96296.88;10331817;28;96839;-58
2022/08/20 05:18:32;;;;;;;4.70;3.40;;;;;;;17.01;83.86;96296.16;10330998;28;97342;-58
2022/08/20 05:23:38;;;;;;;7.60;3.75;;;;;;;17.04;83.72;96305.50;10329805;28;97267;-57
2022/08/20 05:28:41;;;;;;;7.45;3.55;;;;;;;16.98;83.89;96315.81;10330247;28;98111;-57
2022/08/20 05:34:01;;;;;;;69.47;60.83;;;;;;;16.93;84.13;96320.00;10323342;28;96735;-58
2022/08/20 05:39:04;;;;;;;;;;;;;;;16.96;83.84;96314.38;10332263;28;97084;-60
2022/08/20 05:44:12;;;;;;;5.25;3.72;;;;;;;16.97;84.16;96327.38;10321584;28;97996;-57
2022/08/20 05:49:18;;;;;;;5.88;4.25;;;;;;;16.92;84.31;96327.13;10334257;28;97816;-58
2022/08/20 05:54:22;;;;;;;6.22;3.80;;;;;;;17.00;84.27;96337.56;10332154;28;97327;-58
2022/08/20 05:59:26;;;;;;;7.00;4.17;;;;;;;17.13;83.63;96330.81;10323573;28;97762;-57
2022/08/20 06:04:30;;;;;;;4.28;3.35;;;;;;;17.14;83.60;96337.69;10329617;28;96843;-57
2022/08/20 06:09:35;;;;;;;5.85;3.25;;;;;;;17.19;83.51;96345.88;10328969;28;97601;-58
2022/08/20 06:14:38;;;;;;;5.90;3.58;;;;;;;17.19;83.61;96345.88;10327152;28;96844;-58
2022/08/20 06:19:44;;;;;;;7.28;3.70;;;;;;;17.17;83.21;96340.78;10328161;28;96995;-58
2022/08/20 06:24:48;;;;;;;10.15;3.67;;;;;;;17.22;83.64;96340.25;10334218;28;97887;-58
2022/08/20 06:29:52;;;;;;;5.53;3.90;;;;;;;17.20;83.45;96344.88;10337486;28;97138;-59
2022/08/20 06:34:56;;;;;;;5.75;4.30;;;;;;;17.21;83.02;96348.34;10328696;28;97047;-58
2022/08/20 06:40:01;;;;;;;7.07;4.72;;;;;;;17.31;83.30;96339.09;10331289;28;96910;-58
2022/08/20 06:45:05;;;;;;;5.72;4.85;;;;;;;17.38;83.10;96345.25;10338329;28;96903;-61
2022/08/20 06:50:12;;;;;;;6.22;4.85;;;;;;;17.30;83.22;96337.50;10337303;28;96823;-58
2022/08/20 06:55:16;;;;;;;6.95;4.93;;;;;;;17.34;83.79;96359.88;10334257;28;96889;-58
2022/08/20 07:00:19;;;;;;;6.60;5.33;;;;;;;17.38;83.04;96355.84;10333411;28;96846;-58
2022/08/20 07:05:23;;;;;;;5.80;5.20;;;;;;;17.38;83.11;96355.84;10334588;28;96670;-58
2022/08/20 07:10:29;;;;;;;5.68;4.80;;;;;;;17.36;83.35;96359.69;10336313;28;96903;-58
2022/08/20 07:15:32;;;;;;;7.13;5.50;;;;;;;17.45;82.66;96350.63;10332945;28;96953;-61
2022/08/20 07:20:39;;;;;;;5.47;4.95;;;;;;;17.59;83.25;96361.31;10335795;28;96816;-58
2022/08/20 07:25:43;;;;;;;7.20;5.50;;;;;;;17.61;83.05;96365.41;10334961;28;97069;-58
2022/08/20 07:36:18;;;;;;;8.13;6.35;;;;;;;18.01;82.61;96349.09;10328107;28;96722;-58
2022/08/20 07:41:21;;;;;;;8.55;7.25;;;;;;;18.36;82.43;96357.06;10330993;28;96772;-58
2022/08/20 07:46:24;;;;;;;8.55;7.22;;;;;;;18.55;81.24;96356.41;10325582;28;96850;-58
2022/08/20 07:51:34;;;;;;;8.98;7.60;;;;;;;18.69;80.81;96360.75;10328802;28;97246;-58
2022/08/20 07:56:37;;;;;;;7.82;6.70;;;;;;;18.87;79.85;96359.44;10330503;28;98512;-58
2022/08/20 08:01:41;;;;;;;9.40;7.53;;;;;;;19.15;79.10;96361.97;10320487;28;97719;-58
2022/08/20 08:06:45;;;;;;;8.48;6.45;;;;;;;19.48;78.44;96374.50;10323981;28;96764;-57
2022/08/20 08:11:50;;;;;;;8.07;7.28;;;;;;;19.68;78.25;96379.00;10326976;28;96867;-58
2022/08/20 08:16:56;;;;;;;8.95;7.47;;;;;;;19.63;77.13;96374.34;10329640;28;97047;-58
2022/08/20 08:22:00;;;;;;;7.68;6.95;;;;;;;19.56;77.67;96371.69;10334497;28;96770;-59
2022/08/20 08:27:03;;;;;;;6.85;6.22;;;;;;;19.50;77.77;96380.41;10330124;28;98504;-58
2022/08/20 08:32:07;;;;;;;8.30;6.03;;;;;;;19.49;77.71;96384.09;10332659;28;98390;-58
2022/08/20 08:37:11;;;;;;;8.47;6.50;;;;;;;19.21;78.31;96382.38;10328409;28;96791;-58
2022/08/20 08:42:23;;;;;;;;;;;;;;;19.00;79.25;96396.56;10333460;28;96808;-57
2022/08/20 08:47:30;;;;;;;6.45;5.80;;;;;;;18.99;80.36;96396.75;10318366;28;98619;-58
2022/08/20 08:52:39;;;;;;;6.95;5.47;;;;;;;19.10;78.89;96393.53;10327122;28;96939;-58
2022/08/20 08:57:42;;;;;;;9.25;5.40;;;;;;;19.30;78.71;96398.91;10326341;28;98259;-58
2022/08/20 09:02:55;;;;;;;5.65;5.15;;;;;;;19.15;80.08;96404.34;10332040;28;96814;-57
2022/08/20 09:08:03;;;;;;;4.93;4.43;;;;;;;19.05;79.32;96409.19;10332365;28;97265;-58
2022/08/20 09:13:06;;;;;;;5.93;4.28;;;;;;;19.21;79.51;96406.22;10332760;28;96742;-57
2022/08/20 09:18:09;;;;;;;3.95;3.20;;;;;;;19.28;78.79;96397.47;10328247;28;97080;-58
2022/08/20 09:23:13;;;;;;;3.95;2.90;;;;;;;19.34;78.90;96408.09;10330263;28;96961;-59
2022/08/20 09:28:16;;;;;;;4.13;3.35;;;;;;;19.46;78.99;96399.56;10331919;28;96893;-58
2022/08/20 09:33:19;;;;;;;3.72;3.03;;;;;;;19.75;78.08;96393.94;10318918;28;97048;-58
2022/08/20 09:38:24;;;;;;;3.30;2.93;;;;;;;20.00;77.49;96386.22;10325248;28;98117;-58
2022/08/20 09:43:27;;;;;;;;;;;;;;;20.21;77.05;96384.38;10329276;28;98598;-59
2022/08/20 09:48:30;;;;;;;4.03;3.10;;;;;;;20.15;76.98;96388.69;10319647;28;97695;-58
2022/08/20 09:53:35;;;;;;;1.67;1.30;;;;;;;20.37;76.41;96386.63;10323729;28;96726;-58
2022/08/20 09:58:47;;;;;;;2.40;1.48;;;;;;;20.51;75.24;96386.59;10320634;28;98534;-58
2022/08/20 10:03:50;;;;;;;2.00;1.58;;;;;;;20.86;74.91;96378.38;10320968;28;96921;-58
2022/08/20 10:08:54;;;;;;;4.10;1.50;;;;;;;21.16;74.30;96384.00;10326272;28;98779;-59
2022/08/20 10:13:57;;;;;;;;;;;;;;;21.27;74.27;96379.84;10321040;28;98790;-59
2022/08/20 10:19:00;;;;;;;1.83;1.15;;;;;;;21.51;71.81;96379.13;10325654;28;97572;-58
2022/08/20 10:24:05;;;;;;;1.80;1.20;;;;;;;21.78;71.16;96375.50;10328030;28;96809;-58
2022/08/20 10:29:07;;;;;;;1.63;1.13;;;;;;;21.50;70.17;96369.53;10328248;28;97572;-58
2022/08/20 10:34:10;;;;;;;1.50;1.20;;;;;;;21.33;70.13;96368.41;10328603;28;96861;-59
2022/08/20 10:39:15;;;;;;;1.33;1.23;;;;;;;21.28;69.84;96368.22;10326050;28;96909;-62
2022/08/20 10:44:18;;;;;;;5.00;3.88;;;;;;;21.40;68.81;96355.88;10328391;28;96822;-58
2022/08/20 10:49:21;;;;;;;2.28;1.15;;;;;;;21.65;69.04;96352.50;10327383;28;98694;-58
2022/08/20 10:54:25;;;;;;;1.38;1.10;;;;;;;21.87;67.46;96351.09;10328479;28;97014;-58
2022/08/20 10:59:27;;;;;;;;;;;;;;;22.19;68.13;96344.91;10329993;28;97350;-58
2022/08/20 11:04:30;;;;;;;1.85;1.30;;;;;;;22.45;65.61;96343.84;10327974;28;97131;-59
2022/08/20 11:09:34;;;;;;;1.33;1.23;;;;;;;22.70;64.80;96337.66;10325008;28;98498;-59
2022/08/20 11:14:37;;;;;;;;;;;;;;;22.86;65.71;96331.75;10334124;28;97342;-60
2022/08/20 11:19:41;;;;;;;2.25;1.20;;;;;;;23.03;65.35;96333.78;10335483;28;96773;-58
2022/08/20 11:24:46;;;;;;;0.90;0.80;;;;;;;23.06;62.55;96330.69;10333125;28;96807;-58
2022/08/20 11:29:48;;;;;;;1.33;0.80;;;;;;;22.73;63.75;96327.38;10334160;28;97287;-59
2022/08/20 11:34:52;;;;;;;0.95;0.88;;;;;;;22.45;64.62;96338.50;10336055;28;97137;-58
2022/08/20 11:39:56;;;;;;;0.70;0.70;;;;;;;22.62;62.77;96336.94;10335507;28;96878;-58
2022/08/20 11:44:59;;;;;;;1.98;1.05;;;;;;;22.95;63.27;96330.41;10335744;28;96879;-58
2022/08/20 11:50:05;;;;;;;1.65;0.68;;;;;;;23.24;60.79;96328.00;10333861;28;96737;-59
2022/08/20 11:55:12;;;;;;;1.38;0.80;;;;;;;23.53;61.81;96321.06;10335020;28;96847;-58
2022/08/20 12:00:20;;;;;;;0.80;0.80;;;;;;;23.84;60.69;96331.66;10336148;28;96748;-58
2022/08/20 12:05:35;;;;;;;0.98;0.73;;;;;;;24.01;60.03;96326.47;10333607;28;96875;-59
2022/08/20 12:10:39;;;;;;;0.93;0.80;;;;;;;23.89;59.94;96323.78;10333972;28;96858;-58
2022/08/20 12:15:42;;;;;;;1.08;0.98;;;;;;;24.12;59.01;96325.69;10334602;28;97304;-59
2022/08/20 12:20:45;;;;;;;1.67;1.15;;;;;;;24.21;58.56;96329.66;10333275;28;96850;-58
2022/08/20 12:25:54;;;;;;;1.15;0.90;;;;;;;24.32;57.96;96325.38;10334631;28;96752;-58
2022/08/20 12:31:00;;;;;;;1.15;0.90;;;;;;;24.29;60.08;96323.16;10334163;28;96764;-59
2022/08/20 12:36:04;;;;;;;1.52;0.90;;;;;;;24.18;58.74;96321.31;10333863;28;96897;-58
2022/08/20 12:41:08;;;;;;;;;;;;;;;24.04;59.79;96312.69;10334585;28;97242;-59
2022/08/20 12:46:11;;;;;;;0.70;0.70;;;;;;;23.63;60.06;96325.03;10333645;28;96916;-59
2022/08/20 12:51:14;;;;;;;1.08;0.90;;;;;;;23.29;60.22;96317.50;10333533;28;96947;-58
2022/08/20 12:56:18;;;;;;;1.45;0.75;;;;;;;23.43;61.15;96320.81;10329129;28;96827;-58
2022/08/20 13:01:21;;;;;;;0.73;0.68;;;;;;;23.64;59.33;96314.13;10330816;28;96901;-59
2022/08/20 13:06:24;;;;;;;1.15;0.70;;;;;;;23.66;58.43;96316.56;10329585;28;97577;-59
2022/08/20 13:11:28;;;;;;;0.52;0.52;;;;;;;23.65;58.68;96305.06;10331130;28;96761;-59
2022/08/20 13:16:31;;;;;;;1.50;0.60;;;;;;;23.94;57.69;96307.91;10326747;28;98868;-59
2022/08/20 13:21:35;;;;;;;0.70;0.70;;;;;;;24.08;56.29;96304.00;10327013;28;99354;-58
2022/08/20 13:26:39;;;;;;;;;;;;;;;24.13;57.39;96312.13;10329558;28;96897;-59
2022/08/20 13:31:42;;;;;;;0.50;0.50;;;;;;;24.19;57.17;96309.56;10331724;28;96767;-58
2022/08/20 13:36:45;;;;;;;0.90;0.80;;;;;;;24.59;59.44;96298.16;10325645;28;97583;-60
2022/08/20 13:41:49;;;;;;;0.85;0.68;;;;;;;24.61;55.31;96290.72;10330590;28;98619;-59
2022/08/20 13:46:52;;;;;;;1.45;0.70;;;;;;;24.75;53.92;96301.94;10327924;28;98523;-59
2022/08/20 13:51:55;;;;;;;1.07;0.70;;;;;;;24.63;55.16;96304.66;10329282;28;97260;-59
2022/08/20 13:57:06;;;;;;;1.48;0.57;;;;;;;24.88;55.61;96297.19;10329709;28;96795;-59
2022/08/20 14:02:11;;;;;;;0.90;0.70;;;;;;;25.02;53.92;96286.22;10331026;28;97677;-59
2022/08/20 14:07:16;;;;;;;1.02;0.63;;;;;;;24.92;53.19;96286.03;10329033;28;96850;-59
2022/08/20 14:12:21;;;;;;;0.63;0.50;;;;;;;24.81;52.82;96290.38;10330659;28;96825;-59
2022/08/20 14:17:26;;;;;;;2.50;1.00;;;;;;;24.85;54.53;96292.34;10322611;28;96758;-59
2022/08/20 14:22:29;;;;;;;1.60;1.20;;;;;;;25.25;54.71;96285.31;10324288;28;96913;-59
2022/08/20 14:27:34;;;;;;;1.30;1.20;;;;;;;25.79;53.74;96272.38;10329941;28;96809;-59
2022/08/20 14:32:36;;;;;;;1.10;1.00;;;;;;;25.76;52.91;96280.06;10326640;28;97145;-59
2022/08/20 14:37:42;;;;;;;1.33;1.10;;;;;;;25.27;52.41;96279.72;10318693;28;97871;-60
2022/08/20 14:42:48;;;;;;;0.82;0.80;;;;;;;24.48;53.94;96271.22;10326473;28;98932;-59
2022/08/20 14:47:55;;;;;;;1.02;0.80;;;;;;;24.09;55.10;96286.94;10330514;28;97264;-60
2022/08/20 14:52:59;;;;;;;0.80;0.70;;;;;;;23.99;56.34;96280.53;10323100;28;97549;-59
2022/08/20 14:58:06;;;;;;;0.70;0.70;;;;;;;23.96;56.30;96268.47;10332729;28;97186;-59
2022/08/20 15:03:09;;;;;;;1.85;0.68;;;;;;;24.01;56.34;96265.13;10339863;28;96871;-59
2022/08/20 15:08:12;;;;;;;0.93;0.60;;;;;;;24.19;55.18;96264.19;10335031;28;97995;-58
2022/08/20 15:13:17;;;;;;;1.75;0.65;;;;;;;24.81;53.97;96256.44;10335547;28;96779;-59
2022/08/20 15:18:23;;;;;;;0.93;0.55;;;;;;;26.12;51.49;96261.84;10334187;28;96886;-60
2022/08/20 15:23:26;;;;;;;0.52;0.52;;;;;;;27.82;48.35;96252.00;10332885;28;98838;-60
2022/08/20 15:28:30;;;;;;;0.80;0.50;;;;;;;28.26;48.17;96255.50;10333531;28;98064;-59
2022/08/20 15:33:33;;;;;;;0.50;0.50;;;;;;;29.02;45.31;96243.50;10333161;28;96831;-59
2022/08/20 15:38:36;;;;;;;1.35;0.60;;;;;;;29.29;45.51;96246.78;10328544;28;98968;-59
2022/08/20 15:43:41;;;;;;;0.93;0.70;;;;;;;28.68;44.70;96241.22;10339630;28;96881;-60
2022/08/20 15:48:47;;;;;;;0.75;0.60;;;;;;;28.26;45.27;96244.78;10333532;28;97887;-59
2022/08/20 15:53:58;;;;;;;0.52;0.50;;;;;;;28.91;43.86;96229.19;10330723;28;98680;-59
2022/08/20 15:59:13;;;;;;;0.50;0.43;;;;;;;28.31;44.25;96228.69;10332474;28;96822;-60
2022/08/20 16:04:32;;;;;;;0.98;0.60;;;;;;;27.64;45.76;96230.94;10333776;28;97164;-59
2022/08/20 16:09:48;;;;;;;0.90;0.70;;;;;;;27.45;45.71;96231.28;10333456;28;96780;-60
2022/08/20 16:14:58;;;;;;;0.60;0.55;;;;;;;28.04;46.10;96234.97;10333115;28;96897;-59
2022/08/20 16:20:07;;;;;;;0.95;0.75;;;;;;;28.10;44.04;96231.25;10332368;28;96892;-63
2022/08/20 16:25:11;;;;;;;0.80;0.55;;;;;;;27.46;44.87;96232.09;10331746;28;99047;-60
2022/08/20 16:30:20;;;;;;;0.55;0.55;;;;;;;26.83;45.78;96232.53;10331361;28;99162;-59
2022/08/20 16:35:28;;;;;;;1.30;0.70;;;;;;;26.70;46.60;96224.88;10334120;28;97018;-59
2022/08/20 16:40:38;;;;;;;0.73;0.50;;;;;;;26.49;46.85;96221.16;10333272;28;96784;-59
2022/08/20 16:45:48;;;;;;;0.90;0.68;;;;;;;26.16;47.47;96233.56;10331092;28;96835;-60
2022/08/20 16:50:57;;;;;;;1.23;0.80;;;;;;;26.00;47.73;96233.34;10330693;28;97750;-58
2022/08/20 16:56:00;;;;;;;0.98;0.70;;;;;;;26.79;46.68;96223.38;10333145;28;96891;-59
2022/08/20 17:01:13;;;;;;;1.30;0.80;;;;;;;27.59;45.52;96215.56;10331832;28;97565;-58
2022/08/20 17:06:28;;;;;;;0.60;0.47;;;;;;;28.05;43.73;96212.41;10332598;28;98807;-60
2022/08/20 17:11:32;;;;;;;1.50;0.60;;;;;;;28.29;43.79;96217.41;10328943;28;98640;-59
2022/08/20 17:16:38;;;;;;;1.52;0.52;;;;;;;28.35;43.05;96213.69;10331511;28;96978;-59
2022/08/20 17:21:43;;;;;;;19.48;17.40;;;;;;;27.80;44.14;96192.38;10330800;28;98739;-59
2022/08/20 17:26:48;;;;;;;1.25;0.68;;;;;;;26.98;45.57;96194.38;10323088;28;98617;-59
2022/08/20 17:31:56;;;;;;;5.50;4.90;;;;;;;26.17;47.73;96195.00;10331450;28;96769;-58
2022/08/20 17:37:10;;;;;;;1.63;0.80;;;;;;;25.40;48.59;96185.84;10329303;28;97236;-59
2022/08/20 17:42:18;;;;;;;0.98;0.60;;;;;;;24.71;49.86;96178.72;10331041;28;96729;-58
2022/08/20 17:47:29;;;;;;;0.63;0.47;;;;;;;24.30;50.49;96189.44;10330103;28;98770;-59
2022/08/20 17:52:38;;;;;;;1.15;0.70;;;;;;;23.94;51.17;96194.00;10329366;28;97050;-58
2022/08/20 17:57:45;;;;;;;0.63;0.52;;;;;;;23.64;51.87;96196.00;10329058;28;96798;-59
2022/08/20 18:02:51;;;;;;;1.73;0.50;;;;;;;23.30;53.56;96191.19;10327639;28;96936;-58
2022/08/20 18:08:07;;;;;;;2.08;0.90;;;;;;;22.90;54.83;96201.59;10327781;28;96986;-59
2022/08/20 18:13:17;;;;;;;1.05;0.77;;;;;;;22.70;54.30;96200.03;10339874;28;97182;-58
2022/08/20 18:18:30;;;;;;;2.00;0.80;;;;;;;22.37;55.35;96197.72;10328791;28;96890;-61
2022/08/20 18:23:40;;;;;;;0.93;0.52;;;;;;;22.11;56.25;96204.19;10322970;28;97031;-58
2022/08/20 18:28:47;;;;;;;1.85;0.98;;;;;;;21.83;56.88;96206.31;10330751;28;96876;-59
2022/08/20 18:33:51;;;;;;;0.75;0.60;;;;;;;21.62;57.09;96212.03;10330509;28;96920;-58
2022/08/20 18:38:58;;;;;;;;;;;;;;;21.48;56.61;96206.81;10331408;28;98678;-59
2022/08/20 18:44:05;;;;;;;2.15;1.40;;;;;;;21.34;57.92;96215.09;10330105;28;97155;-58
2022/08/20 18:49:12;;;;;;;2.67;1.20;;;;;;;21.30;59.04;96210.19;10329579;28;96857;-58
2022/08/20 18:54:23;;;;;;;2.22;1.45;;;;;;;21.05;59.72;96204.88;10327707;28;97794;-60
2022/08/20 18:59:26;;;;;;;8.60;2.38;;;;;;;20.91;60.26;96212.13;10329705;28;97119;-60
2022/08/20 19:04:33;;;;;;;5.97;3.75;;;;;;;20.81;60.84;96213.56;10328164;28;97620;-59
2022/08/20 19:09:52;;;;;;;3.80;2.45;;;;;;;20.78;61.18;96222.00;10329272;28;96827;-60
2022/08/20 19:15:01;;;;;;;1.30;0.80;;;;;;;20.45;62.06;96215.78;10329471;28;96865;-60
2022/08/20 19:20:13;;;;;;;3.47;1.00;;;;;;;20.25;62.98;96218.50;10328489;28;98491;-60
2022/08/20 19:25:28;;;;;;;2.80;1.35;;;;;;;19.92;63.83;96219.41;10327439;28;97274;-60
2022/08/20 19:30:35;;;;;;;2.65;0.90;;;;;;;19.70;63.25;96233.88;10333030;28;97871;-60
2022/08/20 19:35:40;;;;;;;1.50;0.77;;;;;;;19.68;62.74;96231.44;10334578;28;96784;-60
2022/08/20 19:40:44;;;;;;;1.50;1.20;;;;;;;19.63;63.28;96247.94;10335034;28;98427;-60
2022/08/20 19:45:49;;;;;;;;;;;;;;;19.36;63.53;96251.59;10334205;28;96858;-60
2022/08/20 19:51:05;;;;;;;2.33;0.70;;;;;;;19.31;63.73;96251.41;10334253;28;96901;-60
2022/08/20 19:56:12;;;;;;;3.08;0.90;;;;;;;19.31;63.32;96243.44;10325318;28;98468;-60
2022/08/20 20:01:18;;;;;;;1.67;1.00;;;;;;;19.23;63.76;96247.13;10335066;28;96827;-59
2022/08/20 20:06:24;;;;;;;3.92;1.52;;;;;;;18.95;65.05;96244.59;10335330;28;97706;-59
2022/08/20 20:11:32;;;;;;;2.92;1.17;;;;;;;18.87;65.13;96249.06;10333894;28;97279;-60
2022/08/20 20:16:37;;;;;;;20.30;15.23;;;;;;;18.79;65.24;96246.56;10329805;28;96977;-60
2022/08/20 20:21:43;;;;;;;2.15;0.98;;;;;;;18.76;65.44;96246.16;10331787;28;97301;-60
2022/08/20 20:26:48;;;;;;;2.13;1.23;;;;;;;18.56;66.09;96236.31;10325225;28;96760;-59
2022/08/20 20:31:53;;;;;;;4.57;1.17;;;;;;;18.40;66.87;96242.78;10332521;28;96965;-59
2022/08/20 20:37:08;;;;;;;1.90;0.82;;;;;;;18.24;67.36;96243.13;10332093;28;96927;-59
2022/08/20 20:42:27;;;;;;;12.15;6.55;;;;;;;18.09;67.80;96240.59;10332536;28;96910;-59
2022/08/20 20:47:33;;;;;;;4.88;1.25;;;;;;;17.94;68.22;96232.75;10331903;28;97505;-59
2022/08/20 20:52:55;;;;;;;2.03;0.88;;;;;;;17.90;68.17;96242.09;10331996;28;96881;-59
2022/08/20 20:57:59;;;;;;;2.88;1.05;;;;;;;17.86;68.17;96241.66;10333062;28;98648;-59
2022/08/20 21:03:04;;;;;;;2.72;1.13;;;;;;;17.76;68.29;96249.09;10333131;28;98994;-59
2022/08/20 21:08:10;;;;;;;1.60;1.17;;;;;;;17.74;68.42;96254.56;10332956;28;97212;-63
2022/08/20 21:13:15;;;;;;;1.52;0.90;;;;;;;17.79;68.52;96255.78;10330795;28;96957;-60
2022/08/20 21:18:18;;;;;;;1.65;0.80;;;;;;;17.75;68.67;96253.56;10332784;28;96708;-59
2022/08/20 21:23:29;;;;;;;3.72;1.20;;;;;;;17.71;68.87;96254.13;10331325;28;96990;-59
2022/08/20 21:28:43;;;;;;;2.20;0.85;;;;;;;17.54;69.64;96256.22;10331611;28;97152;-60
2022/08/20 21:33:46;;;;;;;3.90;1.10;;;;;;;17.48;70.30;96251.72;10332330;28;97013;-60
2022/08/20 21:38:50;;;;;;;3.70;1.50;;;;;;;17.40;70.37;96257.94;10332288;28;97742;-60
2022/08/20 21:43:53;;;;;;;2.00;1.40;;;;;;;17.27;70.95;96258.66;10331754;28;96862;-59
2022/08/20 21:48:56;;;;;;;1.63;1.40;;;;;;;17.19;71.32;96256.13;10331145;28;98707;-60
2022/08/20 21:54:01;;;;;;;2.63;1.20;;;;;;;17.17;71.32;96252.88;10330428;28;96733;-60
2022/08/20 21:59:07;;;;;;;3.63;1.15;;;;;;;16.97;71.83;96250.03;10331232;28;96890;-60
2022/08/20 22:04:09;;;;;;;3.72;0.95;;;;;;;16.85;72.00;96247.06;10331900;28;97853;-59
2022/08/20 22:09:15;;;;;;;5.20;1.20;;;;;;;16.81;71.84;96237.88;10330505;28;96830;-59
2022/08/20 22:14:18;;;;;;;2.13;1.05;;;;;;;16.74;72.41;96236.97;10330772;28;96831;-59
2022/08/20 22:19:21;;;;;;;2.47;1.17;;;;;;;16.69;72.30;96239.34;10329700;28;97598;-59
2022/08/20 22:24:27;;;;;;;2.90;1.23;;;;;;;16.68;72.55;96243.00;10329584;28;97350;-59
2022/08/20 22:29:30;;;;;;;3.67;1.00;;;;;;;16.69;72.34;96239.34;10330838;28;97056;-60
2022/08/20 22:34:35;;;;;;;3.80;1.02;;;;;;;16.60;71.85;96228.91;10330491;28;97461;-59
2022/08/20 22:39:39;;;;;;;2.17;1.10;;;;;;;16.61;71.98;96232.38;10323841;28;98745;-59
2022/08/20 22:44:42;;;;;;;7.20;1.47;;;;;;;16.66;71.69;96229.16;10330650;28;97591;-59
2022/08/20 22:49:45;;;;;;;2.75;1.38;;;;;;;16.63;71.98;96233.81;10330372;28;96842;-59
2022/08/20 22:54:49;;;;;;;3.20;1.27;;;;;;;16.43;73.48;96224.84;10330305;28;96884;-59
2022/08/20 22:59:52;;;;;;;;;;;;;;;16.42;72.61;96218.75;10330796;28;97057;-59
2022/08/20 23:04:56;;;;;;;3.53;1.58;;;;;;;16.29;73.35;96221.22;10332328;28;96766;-60
2022/08/20 23:10:00;;;;;;;3.25;1.85;;;;;;;16.13;74.22;96218.81;10336098;28;97232;-59
2022/08/20 23:15:03;;;;;;;4.50;1.80;;;;;;;15.97;74.60;96214.53;10336826;28;96920;-59
2022/08/20 23:20:07;;;;;;;28.27;18.88;;;;;;;15.93;74.65;96218.53;10335160;28;97261;-59
2022/08/20 23:25:13;;;;;;;3.90;2.07;;;;;;;15.92;75.10;96216.91;10336254;28;98146;-59
2022/08/20 23:30:19;;;;;;;3.33;1.48;;;;;;;15.79;75.90;96218.38;10336533;28;96755;-59
2022/08/20 23:35:22;;;;;;;5.10;1.80;;;;;;;15.69;76.20;96212.53;10334958;28;98250;-61
2022/08/20 23:40:33;;;;;;;4.75;1.70;;;;;;;15.63;75.79;96208.81;10335037;28;99534;-59
2022/08/20 23:45:36;;;;;;;4.55;1.20;;;;;;;15.68;75.42;96200.34;10335790;28;97248;-59
2022/08/20 23:50:41;;;;;;;2.95;1.10;;;;;;;15.58;75.36;96207.66;10335802;28;96833;-60